Saarbruecken - Ensheim, Germany

5:54 PM CET on December 25, 2014 (GMT +0100)
ISAARLAN15 | Change Station
CLOSE
Current Station
Personal Weather Station
Location: Blieskastel, SAARLAND
Elevation: 922 ft
Nearby Weather Stations

Elev 922 ft 49.26 °N, 7.24 °E | Updated 4 minutes ago

Mostly Cloudy
Mostly Cloudy
39.9 °F
Feels Like 40 °F
N
0.1
Wind Variable Wind from WSW
Gusts 2.0 mph

Today
High -- | Low -- °F
--% Chance of Precip.
Yesterday
High -- | Low -- °F
Precip. -- in
8:25 AM 4:37 PM
Waxing Crescent, 17% visible
Pressure 30.33 in
Visibility 6.2 miles
Clouds Few 1700 ft
Mostly Cloudy 4600 ft
Windchill 40 °F
Dew Point 37 °F
Humidity 88%
Rainfall 0.00 in
Snow Depth Not available.
UV 0 out of 12
Pollen Not available.
Air Quality Not available.
Flu Activity Not available.
METAR EDDR 251650Z 25008KT 9999 FEW017 BKN046 04/01 Q1027 NOSIG

More Conditions Fewer Conditions

Pressure 30.33 in
Visibility 6.2 miles
Clouds Few 1700 ft
Mostly Cloudy 4600 ft
Windchill 40 °F
Dew Point 37 °F
Humidity 88%
Rainfall 0.00 in
Snow Depth Not available.
UV 0 out of 12
Pollen Not available.
Air Quality Not available.
Flu Activity Not available.
METAR EDDR 251650Z 25008KT 9999 FEW017 BKN046 04/01 Q1027 NOSIG

More Conditions Fewer Conditions

10-Day Weather Forecast

Almanac

Astronomy

Dec. 25, 2014 Rise Set
Actual Time
Civil Twilight
Nautical Twilight
Astronomical Twilight
Moon
Length of Visible Light
Length of Day
Tomorrow will be .
, % of the Moon is Illuminated

Today's Extremes

Country Highs Country Lows

Community

WunderPhotos

Upload Photos

1,780,339 photos uploaded!

WunderBlogs® & News

Nearby

Air Quality

  Air Quality AQ Index Pollutant
Not available.

Snow Depth

Station Depth Elevation

Earthquake Activity

City Distance Mag. Time & Date
Minimum magnitude displayed is 2.5.

Coastal Water Temperatures

Place Temperature

Nearby Weather Stations